createdAt,value
2018-11-06T00:00:32.604Z,24.77
2018-11-06T00:03:06.375Z,25.60
2018-11-06T00:06:38.073Z,26.00
2018-11-06T00:09:08.279Z,24.40
2018-11-06T00:11:36.861Z,26.23
2018-11-06T00:14:09.024Z,28.17
2018-11-06T00:16:37.637Z,23.83
2018-11-06T00:19:06.293Z,24.57
2018-11-06T00:21:34.881Z,22.93
2018-11-06T00:24:03.446Z,24.37
2018-11-06T00:26:32.048Z,23.80
2018-11-06T00:29:00.618Z,21.43
2018-11-06T00:31:29.340Z,23.30
2018-11-06T00:33:58.101Z,22.13
2018-11-06T00:36:26.703Z,24.87
2018-11-06T00:38:55.283Z,20.50
2018-11-06T00:41:23.916Z,24.23
2018-11-06T00:43:52.477Z,21.47
2018-11-06T00:46:21.097Z,22.70
2018-11-06T00:48:49.659Z,21.67
2018-11-06T00:51:18.243Z,21.90
2018-11-06T00:53:46.820Z,22.83
2018-11-06T00:56:15.388Z,24.23
2018-11-06T00:58:43.980Z,23.73
2018-11-06T01:01:12.547Z,25.93
2018-11-06T01:03:46.321Z,24.73
2018-11-06T01:06:14.888Z,25.47
2018-11-06T01:08:43.489Z,25.40
2018-11-06T01:11:12.041Z,29.37
2018-11-06T01:13:40.701Z,28.87
2018-11-06T01:16:09.273Z,31.77
2018-11-06T01:18:37.863Z,29.33
2018-11-06T01:21:06.540Z,30.53
2018-11-06T01:23:35.641Z,28.40
2018-11-06T01:26:04.293Z,30.93
2018-11-06T01:28:32.932Z,31.17
2018-11-06T01:31:01.532Z,29.73
2018-11-06T01:33:30.137Z,27.00
2018-11-06T01:35:58.717Z,32.13
2018-11-06T01:38:27.328Z,31.83
2018-11-06T01:40:55.957Z,29.57
2018-11-06T01:43:24.629Z,29.47
2018-11-06T01:45:53.184Z,27.03
2018-11-06T01:48:21.999Z,28.53
2018-11-06T01:50:50.559Z,27.03
2018-11-06T01:53:19.245Z,24.93
2018-11-06T01:55:47.806Z,24.37
2018-11-06T01:58:16.393Z,27.47
2018-11-06T02:00:44.961Z,25.13
2018-11-06T02:03:13.560Z,29.33
2018-11-06T02:05:42.161Z,26.93
2018-11-06T02:08:10.753Z,30.67
2018-11-06T02:10:39.320Z,25.80
2018-11-06T02:13:07.914Z,28.03
2018-11-06T02:15:36.480Z,30.40
2018-11-06T02:18:05.472Z,25.50
2018-11-06T02:20:34.038Z,25.77
2018-11-06T02:23:02.658Z,31.07
2018-11-06T02:25:31.233Z,30.70
2018-11-06T02:27:59.833Z,29.33
2018-11-06T02:30:28.391Z,30.50
2018-11-06T02:32:56.976Z,27.77
2018-11-06T02:35:25.575Z,26.67
2018-11-06T02:37:54.193Z,26.10
2018-11-06T02:40:22.756Z,26.40
2018-11-06T02:42:51.345Z,29.30
2018-11-06T02:45:20.073Z,28.93
2018-11-06T02:47:48.863Z,26.30
2018-11-06T02:50:17.501Z,28.90
2018-11-06T02:52:46.083Z,27.47
2018-11-06T02:55:16.987Z,25.13
2018-11-06T02:57:45.917Z,25.57
2018-11-06T03:00:16.834Z,23.80
2018-11-06T03:02:46.445Z,26.10
2018-11-06T03:05:15.107Z,25.40
2018-11-06T03:07:43.715Z,25.20
2018-11-06T03:10:13.187Z,24.07
2018-11-06T03:12:42.621Z,23.97
2018-11-06T03:15:12.449Z,24.43
2018-11-06T03:17:41.005Z,26.83
2018-11-06T03:20:10.654Z,29.20
2018-11-06T03:22:39.285Z,34.40
2018-11-06T03:25:08.134Z,24.53
2018-11-06T03:27:36.728Z,25.20
2018-11-06T03:30:07.441Z,26.17
2018-11-06T03:32:35.997Z,25.17
2018-11-06T03:35:04.634Z,23.93
2018-11-06T03:37:33.451Z,29.43
2018-11-06T03:40:02.069Z,27.77
2018-11-06T03:42:30.616Z,24.17
2018-11-06T03:44:59.210Z,24.40
2018-11-06T03:47:27.788Z,24.83
2018-11-06T03:49:56.368Z,23.77
2018-11-06T03:52:30.966Z,22.93
2018-11-06T03:55:06.850Z,26.27
2018-11-06T03:57:39.879Z,24.87
2018-11-06T04:00:17.582Z,25.57
2018-11-06T04:02:49.361Z,24.07
2018-11-06T04:05:24.776Z,24.33
2018-11-06T04:08:01.030Z,24.60
2018-11-06T04:10:36.539Z,20.50
2018-11-06T04:13:10.429Z,21.63
2018-11-06T04:15:44.610Z,25.20
2018-11-06T04:18:15.077Z,27.37
2018-11-06T04:20:49.657Z,26.57
2018-11-06T04:23:23.033Z,24.13
2018-11-06T04:25:58.177Z,23.13
2018-11-06T04:28:26.917Z,27.03
2018-11-06T04:30:55.529Z,26.83
2018-11-06T04:33:24.134Z,24.23
2018-11-06T04:35:52.730Z,28.83
2018-11-06T04:38:21.290Z,29.43
2018-11-06T04:40:49.889Z,26.00
2018-11-06T04:43:18.520Z,24.30
2018-11-06T04:45:47.126Z,26.83
2018-11-06T04:48:15.681Z,25.17
2018-11-06T04:50:44.265Z,27.53
2018-11-06T04:53:12.865Z,26.13
2018-11-06T04:55:41.452Z,26.47
2018-11-06T04:58:10.004Z,24.90
2018-11-06T05:00:38.603Z,24.23
2018-11-06T05:03:07.161Z,24.17
2018-11-06T05:05:35.741Z,24.57
2018-11-06T05:08:04.292Z,23.60
2018-11-06T05:10:32.885Z,22.07
2018-11-06T05:13:01.454Z,23.97
2018-11-06T05:15:30.046Z,23.57
2018-11-06T05:17:58.601Z,26.23
2018-11-06T05:20:27.177Z,23.20
2018-11-06T05:22:55.729Z,26.53
2018-11-06T05:25:24.380Z,27.97
2018-11-06T05:27:52.915Z,24.47
2018-11-06T05:30:21.511Z,25.37
2018-11-06T05:32:50.085Z,26.63
2018-11-06T05:35:18.695Z,23.63
2018-11-06T05:37:47.238Z,23.90
2018-11-06T05:41:27.125Z,24.27
2018-11-06T05:43:55.673Z,21.27
2018-11-06T05:46:24.258Z,25.87
2018-11-06T05:48:52.795Z,25.60
2018-11-06T05:51:21.356Z,26.63
2018-11-06T05:53:49.908Z,29.03
2018-11-06T05:56:18.492Z,25.37
2018-11-06T05:58:48.537Z,26.60
2018-11-06T06:01:19.798Z,29.40
2018-11-06T06:03:50.572Z,23.33
2018-11-06T06:06:20.806Z,23.23
2018-11-06T06:08:52.032Z,23.53
2018-11-06T06:11:23.134Z,23.27
2018-11-06T06:13:56.151Z,23.07
2018-11-06T06:16:34.684Z,22.00
2018-11-06T06:19:09.868Z,23.50
2018-11-06T06:21:49.261Z,24.80
2018-11-06T06:24:23.078Z,23.17
2018-11-06T06:26:58.377Z,23.67
2018-11-06T06:29:32.905Z,22.60
2018-11-06T06:32:08.860Z,21.97
2018-11-06T06:34:42.710Z,21.47
2018-11-06T06:37:18.272Z,22.33
2018-11-06T06:39:52.621Z,22.40
2018-11-06T06:42:27.780Z,22.93
2018-11-06T06:45:02.810Z,23.63
2018-11-06T06:47:39.451Z,21.70
2018-11-06T06:50:19.002Z,24.17
2018-11-06T06:52:54.857Z,25.23
2018-11-06T06:55:29.495Z,25.23
2018-11-06T06:58:04.257Z,25.40
2018-11-06T07:00:32.965Z,26.53
2018-11-06T07:03:01.559Z,24.10
2018-11-06T07:05:30.121Z,28.70
2018-11-06T07:07:58.710Z,27.13
2018-11-06T07:10:27.263Z,30.23
2018-11-06T07:12:56.186Z,22.90
2018-11-06T07:15:34.077Z,22.73
2018-11-06T07:18:03.308Z,21.83
2018-11-06T07:20:32.620Z,23.13
2018-11-06T07:23:01.222Z,29.13
2018-11-06T07:25:29.772Z,27.73
2018-11-06T07:28:05.466Z,27.20
2018-11-06T07:30:34.217Z,24.20
2018-11-06T07:33:02.816Z,26.10
2018-11-06T07:35:31.532Z,26.57
2018-11-06T07:37:59.974Z,25.50
2018-11-06T07:40:36.165Z,25.37
2018-11-06T07:43:05.046Z,26.00
2018-11-06T07:45:33.604Z,28.80
2018-11-06T07:48:02.190Z,25.37
2018-11-06T07:50:30.826Z,23.63
2018-11-06T07:52:59.628Z,27.80
2018-11-06T07:55:31.171Z,27.97
2018-11-06T07:57:59.770Z,26.73
2018-11-06T08:00:28.354Z,29.23
2018-11-06T08:02:57.005Z,33.93
2018-11-06T08:05:25.569Z,35.13
2018-11-06T08:07:54.183Z,29.47
2018-11-06T08:10:25.444Z,27.83
2018-11-06T08:12:54.633Z,28.73
2018-11-06T08:15:23.189Z,27.70
2018-11-06T08:17:51.875Z,26.33
2018-11-06T08:20:20.424Z,26.07
2018-11-06T08:22:49.033Z,27.13
2018-11-06T08:25:18.233Z,29.73
2018-11-06T08:27:47.112Z,29.43
2018-11-06T08:30:15.700Z,31.83
2018-11-06T08:32:44.498Z,28.57
2018-11-06T08:35:14.581Z,28.70
2018-11-06T08:37:43.403Z,28.17
2018-11-06T08:40:13.345Z,27.23
2018-11-06T08:42:41.950Z,29.27
2018-11-06T08:45:11.840Z,26.17
2018-11-06T08:47:41.316Z,27.43
2018-11-06T08:50:11.569Z,28.23
2018-11-06T08:52:40.316Z,27.70
2018-11-06T08:55:10.176Z,32.70
2018-11-06T08:57:39.025Z,29.00
2018-11-06T09:00:09.589Z,29.40
2018-11-06T09:02:38.418Z,30.13
2018-11-06T09:05:08.749Z,29.63
2018-11-06T09:07:37.445Z,27.40
2018-11-06T09:10:06.844Z,28.77
2018-11-06T09:12:35.433Z,26.43
2018-11-06T09:15:04.193Z,27.30
2018-11-06T09:17:32.744Z,27.43
2018-11-06T09:20:03.009Z,29.17
2018-11-06T09:22:31.639Z,28.07
2018-11-06T09:25:00.250Z,28.30
2018-11-06T09:27:28.916Z,26.43
2018-11-06T09:29:57.799Z,25.33
2018-11-06T09:32:26.343Z,25.00
2018-11-06T09:34:54.941Z,25.23
2018-11-06T09:37:23.488Z,26.87
2018-11-06T09:39:52.137Z,25.80
2018-11-06T09:42:20.734Z,24.50
2018-11-06T09:44:49.322Z,24.67
2018-11-06T09:47:17.927Z,23.37
2018-11-06T09:49:46.561Z,24.80
2018-11-06T09:52:15.138Z,26.10
2018-11-06T09:54:43.789Z,23.23
2018-11-06T09:57:12.368Z,23.50
2018-11-06T09:59:40.973Z,24.00
2018-11-06T10:02:09.569Z,23.80
2018-11-06T10:04:38.165Z,21.67
2018-11-06T10:07:07.297Z,22.80
2018-11-06T10:09:35.596Z,22.37
2018-11-06T10:12:04.200Z,21.63
2018-11-06T10:14:32.803Z,20.93
2018-11-06T10:17:01.348Z,21.07
2018-11-06T10:19:30.017Z,22.77
2018-11-06T10:21:58.581Z,22.70
2018-11-06T10:24:27.388Z,23.57
2018-11-06T10:26:55.938Z,22.77
2018-11-06T10:29:24.769Z,21.70
2018-11-06T10:31:53.433Z,23.67
2018-11-06T10:34:21.981Z,22.10
2018-11-06T10:36:50.579Z,23.00
2018-11-06T10:39:19.131Z,22.70
2018-11-06T10:41:47.737Z,22.97
2018-11-06T10:44:16.302Z,22.47
2018-11-06T10:46:44.909Z,20.43
2018-11-06T10:49:13.508Z,20.83
2018-11-06T10:51:42.144Z,22.30
2018-11-06T10:54:10.737Z,21.63
2018-11-06T10:56:39.349Z,21.10
2018-11-06T10:59:07.946Z,20.27
2018-11-06T11:01:41.812Z,21.53
2018-11-06T11:04:16.319Z,21.87
2018-11-06T11:06:44.889Z,21.00
2018-11-06T11:09:13.461Z,21.43
2018-11-06T11:11:42.052Z,20.67
2018-11-06T11:14:10.624Z,20.40
2018-11-06T11:16:39.226Z,20.07
2018-11-06T11:19:07.780Z,18.83
2018-11-06T11:21:36.372Z,19.33
2018-11-06T11:24:05.077Z,19.97
2018-11-06T11:26:33.662Z,18.93
2018-11-06T11:29:02.245Z,18.03
2018-11-06T11:31:30.856Z,18.90
2018-11-06T11:33:59.404Z,22.00
2018-11-06T11:36:27.997Z,23.50
2018-11-06T11:38:56.526Z,22.37
2018-11-06T11:41:25.115Z,22.80
2018-11-06T11:43:53.978Z,25.17
2018-11-06T11:46:22.557Z,25.50
2018-11-06T11:48:51.243Z,25.73
2018-11-06T11:51:19.897Z,26.60
2018-11-06T11:53:48.445Z,24.83
2018-11-06T11:56:17.102Z,22.63
2018-11-06T11:58:45.639Z,22.40
2018-11-06T12:01:14.284Z,21.40
2018-11-06T12:03:43.062Z,22.07
2018-11-06T12:06:11.649Z,22.50
2018-11-06T12:08:40.199Z,23.30
2018-11-06T12:11:08.769Z,22.50
2018-11-06T12:13:37.297Z,22.77
2018-11-06T12:16:05.947Z,23.97
2018-11-06T12:18:34.523Z,23.63
2018-11-06T12:21:03.218Z,24.40
2018-11-06T12:23:31.768Z,24.07
2018-11-06T12:26:00.460Z,23.47
2018-11-06T12:28:29.017Z,24.60
2018-11-06T12:30:57.877Z,23.40
2018-11-06T12:33:26.691Z,23.07
2018-11-06T12:35:56.444Z,23.60
2018-11-06T12:38:25.077Z,24.27
2018-11-06T12:40:53.609Z,23.20
2018-11-06T12:43:28.867Z,22.27
2018-11-06T12:46:03.591Z,23.13
2018-11-06T12:48:36.312Z,22.67
2018-11-06T12:51:07.753Z,22.00
2018-11-06T12:53:39.070Z,21.43
2018-11-06T12:56:10.706Z,21.07
2018-11-06T12:58:41.248Z,20.30
2018-11-06T13:01:11.603Z,20.80
2018-11-06T13:03:42.170Z,20.57
2018-11-06T13:06:12.608Z,19.03
2018-11-06T13:08:41.255Z,18.70
2018-11-06T13:11:09.786Z,19.83
2018-11-06T13:13:38.393Z,19.77
2018-11-06T13:16:06.990Z,19.87
2018-11-06T13:18:35.535Z,19.00
2018-11-06T13:21:04.786Z,18.03
2018-11-06T13:23:35.435Z,17.37
2018-11-06T13:26:07.819Z,18.10
2018-11-06T13:28:41.571Z,17.13
2018-11-06T13:31:21.418Z,15.40
2018-11-06T13:33:57.985Z,15.17
2018-11-06T13:36:35.120Z,14.20
2018-11-06T13:39:12.867Z,14.23
2018-11-06T13:41:50.270Z,14.17
2018-11-06T13:44:25.568Z,14.13
2018-11-06T13:47:01.813Z,13.70
2018-11-06T13:49:43.808Z,14.40
2018-11-06T13:52:18.077Z,14.87
2018-11-06T13:54:53.195Z,13.70
2018-11-06T13:57:26.450Z,12.17
2018-11-06T13:59:59.151Z,11.90
2018-11-06T14:02:38.752Z,10.60
2018-11-06T14:05:16.918Z,9.97
2018-11-06T14:07:51.524Z,11.20
2018-11-06T14:10:23.173Z,10.30
2018-11-06T14:12:57.115Z,11.13
2018-11-06T14:15:30.220Z,10.73
2018-11-06T14:18:04.859Z,10.93
2018-11-06T14:20:45.147Z,11.60
2018-11-06T14:23:17.941Z,12.17
2018-11-06T14:25:49.901Z,11.93
2018-11-06T14:28:23.279Z,12.00
2018-11-06T14:30:57.516Z,11.37
2018-11-06T14:33:30.617Z,12.30
2018-11-06T14:36:04.874Z,11.20
2018-11-06T14:38:40.053Z,11.33
2018-11-06T14:41:11.869Z,12.83
2018-11-06T14:43:45.750Z,12.90
2018-11-06T14:46:19.254Z,12.20
2018-11-06T14:48:53.095Z,12.50
2018-11-06T14:51:26.331Z,12.97
2018-11-06T14:54:01.905Z,12.97
2018-11-06T14:56:35.432Z,12.70
2018-11-06T14:59:12.645Z,14.27
2018-11-06T15:01:45.000Z,14.20
2018-11-06T15:04:18.627Z,13.83
2018-11-06T15:06:52.637Z,14.83
2018-11-06T15:09:26.581Z,14.80
2018-11-06T15:12:01.320Z,14.20
2018-11-06T15:14:34.567Z,14.60
2018-11-06T15:17:06.824Z,13.80
2018-11-06T15:19:42.406Z,18.63
2018-11-06T15:22:16.125Z,17.53
2018-11-06T15:24:51.594Z,14.87
2018-11-06T15:27:26.729Z,14.53
2018-11-06T15:30:03.823Z,16.30
2018-11-06T15:32:39.858Z,17.33
2018-11-06T15:35:16.089Z,15.80
2018-11-06T15:37:48.128Z,16.77
2018-11-06T15:40:24.431Z,17.10
2018-11-06T15:43:04.255Z,17.27
2018-11-06T15:52:47.797Z,17.27
2018-11-06T15:55:22.176Z,16.07
2018-11-06T15:57:55.818Z,15.10
2018-11-06T16:00:28.064Z,16.07
2018-11-06T16:03:03.131Z,17.27
2018-11-06T16:05:36.555Z,16.27
2018-11-06T16:08:13.630Z,15.80
2018-11-06T16:10:45.027Z,17.20
2018-11-06T16:13:20.505Z,16.77
2018-11-06T16:15:55.410Z,18.50
2018-11-06T16:18:28.620Z,20.07
2018-11-06T16:21:02.883Z,22.07
2018-11-06T16:23:39.021Z,27.00
2018-11-06T16:26:13.451Z,22.40
2018-11-06T16:28:47.289Z,22.43
2018-11-06T16:31:19.505Z,21.23
2018-11-06T16:33:53.989Z,19.97
2018-11-06T16:36:28.336Z,19.50
2018-11-06T16:39:01.716Z,19.10
2018-11-06T16:41:35.646Z,18.43
2018-11-06T16:44:11.607Z,18.80
2018-11-06T16:46:45.517Z,19.23
2018-11-06T16:49:19.172Z,19.87
2018-11-06T16:51:52.826Z,20.47
2018-11-06T16:54:25.363Z,21.07
2018-11-06T16:57:00.434Z,21.63
2018-11-06T16:59:35.454Z,20.77
2018-11-06T17:02:11.052Z,20.13
2018-11-06T17:04:45.491Z,19.93
2018-11-06T17:07:20.033Z,21.67
2018-11-06T17:09:53.907Z,21.83
2018-11-06T17:12:28.000Z,20.60
2018-11-06T17:15:01.518Z,22.50
2018-11-06T17:17:37.009Z,21.13
2018-11-06T17:20:14.307Z,21.97
2018-11-06T17:22:47.690Z,21.60
2018-11-06T17:25:22.852Z,23.70
2018-11-06T17:27:58.348Z,22.83
2018-11-06T17:30:32.027Z,23.00
2018-11-06T17:33:05.381Z,24.43
2018-11-06T17:35:38.425Z,23.00
2018-11-06T17:38:12.747Z,26.07
2018-11-06T17:40:45.185Z,24.10
2018-11-06T17:43:25.662Z,26.60
2018-11-06T17:46:04.859Z,27.13
2018-11-06T17:48:38.553Z,28.17
2018-11-06T17:51:11.140Z,28.07
2018-11-06T17:53:47.844Z,29.50
2018-11-06T17:56:21.987Z,29.47
2018-11-06T17:58:55.901Z,30.90
2018-11-06T18:01:30.812Z,29.70
2018-11-06T18:04:05.963Z,28.23
2018-11-06T18:06:40.689Z,29.20
2018-11-06T18:09:18.821Z,29.03
2018-11-06T18:11:59.477Z,29.87
2018-11-06T18:14:29.118Z,30.67
2018-11-06T18:17:03.614Z,33.20
2018-11-06T18:19:42.996Z,33.40
2018-11-06T18:22:19.327Z,33.43
2018-11-06T18:24:52.892Z,34.40
2018-11-06T18:27:25.937Z,36.87
2018-11-06T18:30:01.401Z,34.37
2018-11-06T18:32:35.715Z,34.90
2018-11-06T18:35:12.052Z,37.77
2018-11-06T18:37:45.864Z,35.43
2018-11-06T18:40:22.144Z,36.13
2018-11-06T18:42:56.877Z,30.87
2018-11-06T18:45:30.021Z,31.53
2018-11-06T18:48:05.129Z,32.43
2018-11-06T18:50:39.635Z,30.50
2018-11-06T18:53:12.857Z,29.77
2018-11-06T18:55:45.570Z,29.27
2018-11-06T18:58:18.759Z,31.70
2018-11-06T19:00:50.231Z,30.07
2018-11-06T19:03:23.322Z,27.80
2018-11-06T19:05:56.588Z,29.97
2018-11-06T19:08:31.819Z,32.07
2018-11-06T19:11:06.323Z,29.60
2018-11-06T19:13:40.941Z,29.87
2018-11-06T19:16:13.281Z,32.07
2018-11-06T19:18:47.473Z,32.80
2018-11-06T19:21:21.988Z,32.83
2018-11-06T19:23:56.950Z,31.00
2018-11-06T19:26:32.885Z,31.43
2018-11-06T19:29:09.214Z,29.90
2018-11-06T19:31:43.826Z,34.20
2018-11-06T19:34:17.647Z,32.60
2018-11-06T19:36:50.771Z,32.07
2018-11-06T19:39:23.129Z,32.40
2018-11-06T19:41:58.438Z,30.67
2018-11-06T19:44:33.403Z,31.80
2018-11-06T19:47:13.849Z,32.20
2018-11-06T19:49:49.733Z,34.10
2018-11-06T19:52:22.386Z,32.07
2018-11-06T19:54:56.811Z,31.90
2018-11-06T19:57:30.459Z,32.83
2018-11-06T20:00:08.681Z,33.07
2018-11-06T20:02:44.974Z,32.00
2018-11-06T20:05:23.346Z,29.97
2018-11-06T20:07:55.242Z,29.30
2018-11-06T20:10:29.426Z,29.60
2018-11-06T20:13:03.263Z,28.03
2018-11-06T20:15:40.229Z,28.57
2018-11-06T20:18:14.019Z,29.87
2018-11-06T20:20:51.456Z,44.57
2018-11-06T20:23:26.033Z,32.37
2018-11-06T20:25:59.376Z,29.40
2018-11-06T20:28:32.914Z,29.10
2018-11-06T20:31:08.251Z,30.30
2018-11-06T20:33:39.244Z,32.67
2018-11-06T20:36:12.729Z,31.83
2018-11-06T20:38:49.670Z,30.63
2018-11-06T20:41:25.918Z,32.07
2018-11-06T20:44:00.675Z,31.63
2018-11-06T20:46:36.084Z,36.93
2018-11-06T20:49:10.625Z,30.60
2018-11-06T20:51:45.565Z,32.60
2018-11-06T20:54:21.546Z,32.07
2018-11-06T20:56:55.986Z,30.10
2018-11-06T20:59:35.474Z,32.97
2018-11-06T21:02:07.575Z,31.97
2018-11-06T21:04:42.431Z,31.20
2018-11-06T21:07:16.156Z,35.37
2018-11-06T21:09:51.814Z,32.80
2018-11-06T21:12:27.116Z,32.30
2018-11-06T21:15:01.683Z,32.63
2018-11-06T21:17:37.104Z,28.10
2018-11-06T21:20:09.266Z,31.10
2018-11-06T21:22:37.965Z,32.97
2018-11-06T21:25:07.314Z,41.47
2018-11-06T21:27:35.908Z,51.50
2018-11-06T21:30:05.092Z,43.87
2018-11-06T21:32:33.741Z,37.50
2018-11-06T21:35:02.356Z,44.77
2018-11-06T21:37:31.267Z,38.23
2018-11-06T21:39:59.860Z,32.10
2018-11-06T21:42:28.420Z,33.40
2018-11-06T21:44:57.031Z,31.47
2018-11-06T21:47:25.627Z,31.50
2018-11-06T21:49:54.233Z,27.00
2018-11-06T21:52:23.085Z,28.07
2018-11-06T21:54:51.691Z,28.23
2018-11-06T21:57:20.279Z,26.57
2018-11-06T21:59:48.893Z,28.43
2018-11-06T22:02:17.471Z,27.63
2018-11-06T22:04:46.085Z,27.43
2018-11-06T22:07:15.948Z,27.03
2018-11-06T22:09:46.509Z,27.50
2018-11-06T22:12:18.878Z,25.73
2018-11-06T22:14:50.630Z,24.87
2018-11-06T22:17:20.735Z,28.70
2018-11-06T22:19:50.324Z,29.17
2018-11-06T22:22:21.793Z,27.30
2018-11-06T22:24:51.990Z,24.63
2018-11-06T22:27:22.328Z,24.07
2018-11-06T22:29:52.319Z,24.07
2018-11-06T22:32:22.387Z,23.80
2018-11-06T22:34:56.881Z,27.43
2018-11-06T22:37:31.998Z,25.73
2018-11-06T22:40:03.154Z,23.27
2018-11-06T22:42:35.460Z,17.97
2018-11-06T22:45:13.078Z,15.33
2018-11-06T22:47:44.593Z,12.50
2018-11-06T22:50:19.975Z,13.07
2018-11-06T22:52:53.263Z,12.67
2018-11-06T22:55:28.045Z,15.57
2018-11-06T22:58:01.423Z,19.87
2018-11-06T23:00:39.266Z,17.53
2018-11-06T23:03:13.372Z,17.13
2018-11-06T23:05:46.886Z,16.60
2018-11-06T23:08:25.251Z,15.17
2018-11-06T23:10:58.696Z,14.83
2018-11-06T23:13:32.315Z,14.80
2018-11-06T23:16:07.498Z,12.87
2018-11-06T23:18:41.863Z,12.83
2018-11-06T23:21:16.708Z,11.70
2018-11-06T23:23:50.959Z,12.73
2018-11-06T23:26:26.996Z,13.00
2018-11-06T23:29:00.641Z,13.93
2018-11-06T23:31:35.805Z,13.47
2018-11-06T23:34:11.301Z,12.53
2018-11-06T23:36:44.604Z,13.40
2018-11-06T23:39:17.033Z,13.57
2018-11-06T23:41:49.494Z,12.63
2018-11-06T23:44:20.655Z,13.10
2018-11-06T23:46:51.102Z,12.60
2018-11-06T23:49:22.693Z,13.20
2018-11-06T23:51:56.774Z,12.67
2018-11-06T23:54:27.054Z,12.27
2018-11-06T23:56:57.681Z,13.00
2018-11-06T23:59:29.023Z,13.87
